createdAt,value
2023-01-13T00:00:40.000Z,9.07
2023-01-13T00:15:19.000Z,9.17
2023-01-13T00:29:58.000Z,9.15
2023-01-13T00:44:36.000Z,9.15
2023-01-13T00:59:15.000Z,9.21
2023-01-13T01:13:52.000Z,9.24
2023-01-13T01:28:28.000Z,9.22
2023-01-13T01:43:06.000Z,9.23
2023-01-13T01:57:45.000Z,9.2
2023-01-13T02:12:23.000Z,9.16
2023-01-13T02:27:01.000Z,9.22
2023-01-13T02:41:38.000Z,8.95
2023-01-13T02:56:17.000Z,8.65
2023-01-13T03:10:53.000Z,8.48
2023-01-13T03:25:31.000Z,7.79
2023-01-13T03:40:09.000Z,7.53
2023-01-13T03:54:48.000Z,7.42
2023-01-13T04:09:26.000Z,7.4
2023-01-13T04:24:05.000Z,7.34
2023-01-13T04:38:43.000Z,7.17
2023-01-13T04:53:19.000Z,6.92
2023-01-13T05:07:57.000Z,6.61
2023-01-13T05:22:35.000Z,6.51
2023-01-13T05:37:09.000Z,6.32
2023-01-13T05:51:48.000Z,6.25
2023-01-13T06:06:19.000Z,6.26
2023-01-13T06:20:57.000Z,6.41
2023-01-13T06:35:36.000Z,6.31
2023-01-13T06:50:15.000Z,6.31
2023-01-13T07:04:54.000Z,6.5
2023-01-13T07:19:31.000Z,6.53
2023-01-13T07:34:10.000Z,6.56
2023-01-13T07:48:38.000Z,6.62
2023-01-13T08:03:15.000Z,6.62
2023-01-13T08:17:53.000Z,7.2
2023-01-13T08:32:32.000Z,7.37
2023-01-13T08:47:11.000Z,7.6
2023-01-13T09:01:50.000Z,7.67
2023-01-13T09:16:28.000Z,7.61
2023-01-13T09:31:08.000Z,10.26
2023-01-13T09:45:54.000Z,9.27
2023-01-13T10:00:24.000Z,8.26
2023-01-13T10:14:58.000Z,9.68
2023-01-13T10:29:50.000Z,11.68
2023-01-13T10:44:34.000Z,13.23
2023-01-13T10:59:13.000Z,11.56
2023-01-13T11:13:45.000Z,9.34
2023-01-13T11:28:16.000Z,8.94
2023-01-13T11:42:53.000Z,10.94
2023-01-13T11:57:32.000Z,9.06
2023-01-13T12:12:08.000Z,8.52
2023-01-13T12:26:42.000Z,8.68
2023-01-13T12:41:21.000Z,8.83
2023-01-13T12:56:01.000Z,11.21
2023-01-13T13:00:57.000Z,11.22
2023-01-13T13:15:31.000Z,7.79
2023-01-13T13:30:03.000Z,7.71
2023-01-13T13:44:39.000Z,7.62
2023-01-13T13:59:18.000Z,7.63
2023-01-13T14:13:52.000Z,7.73
2023-01-13T14:28:24.000Z,7.7
2023-01-13T14:42:54.000Z,7.7
2023-01-13T14:57:28.000Z,7.54
2023-01-13T15:12:06.000Z,7.38
2023-01-13T15:26:43.000Z,7.36
2023-01-13T15:41:22.000Z,7.33
2023-01-13T15:56:00.000Z,7.31
2023-01-13T16:10:33.000Z,7.34
2023-01-13T16:25:11.000Z,7.26
2023-01-13T16:39:43.000Z,7.32
2023-01-13T16:54:22.000Z,7.55
2023-01-13T17:09:00.000Z,7.29
2023-01-13T17:23:39.000Z,7.12
2023-01-13T17:38:15.000Z,6.87
2023-01-13T17:52:53.000Z,7.08
2023-01-13T18:07:31.000Z,6.82
2023-01-13T18:22:03.000Z,6.77
2023-01-13T18:36:40.000Z,6.76
2023-01-13T18:51:19.000Z,6.77
2023-01-13T19:05:57.000Z,6.67
2023-01-13T19:20:35.000Z,6.47
2023-01-13T19:35:09.000Z,6.52
2023-01-13T19:49:36.000Z,6.48
2023-01-13T20:04:14.000Z,5.8
2023-01-13T20:18:51.000Z,5.52
2023-01-13T20:33:25.000Z,5.25
2023-01-13T20:48:01.000Z,5.27
2023-01-13T21:02:39.000Z,5.4
2023-01-13T21:17:18.000Z,5.36
2023-01-13T21:31:57.000Z,5.46
2023-01-13T21:46:33.000Z,5.5
2023-01-13T22:01:09.000Z,5.65
2023-01-13T22:15:48.000Z,5.59
2023-01-13T22:30:26.000Z,5.66
2023-01-13T22:44:56.000Z,5.71
2023-01-13T22:59:35.000Z,5.69
2023-01-13T23:14:13.000Z,5.65
2023-01-13T23:28:52.000Z,5.66
2023-01-13T23:43:27.000Z,5.59
2023-01-13T23:58:03.000Z,5.58
